TimeCDT,TemperatureF,Dew PointF,Humidity,Sea Level PressureIn,VisibilityMPH,Wind Direction,Wind SpeedMPH,Gust SpeedMPH,PrecipitationIn,Events,Conditions,WindDirDegrees,DateUTC
12:53 AM,48.0,36.0,63,30.19,10.0,NNW,4.6,-,N/A,,Clear,340,2013-03-13 05:53:00
1:53 AM,46.9,36.0,66,30.19,10.0,Calm,Calm,-,N/A,,Clear,0,2013-03-13 06:53:00
2:53 AM,44.1,36.0,73,30.19,10.0,NNW,5.8,-,N/A,,Clear,340,2013-03-13 07:53:00
3:53 AM,45.0,35.1,68,30.21,10.0,NNW,4.6,-,N/A,,Clear,330,2013-03-13 08:53:00
4:53 AM,44.1,35.1,71,30.22,10.0,NNW,4.6,-,N/A,,Clear,340,2013-03-13 09:53:00
5:53 AM,44.1,35.1,71,30.24,10.0,NNW,4.6,-,N/A,,Clear,330,2013-03-13 10:53:00
6:53 AM,42.8,35.6,76,30.25,10.0,NNW,8.1,-,N/A,,Clear,340,2013-03-13 11:53:00
7:53 AM,48.0,37.0,66,30.29,10.0,NNW,5.8,-,N/A,,Clear,340,2013-03-13 12:53:00
8:53 AM,55.0,36.0,49,30.30,10.0,NNW,8.1,-,N/A,,Clear,330,2013-03-13 13:53:00
9:53 AM,60.1,35.1,39,30.32,10.0,NNW,9.2,-,N/A,,Clear,330,2013-03-13 14:53:00
10:53 AM,63.0,32.0,31,30.32,10.0,North,12.7,20.7,N/A,,Clear,360,2013-03-13 15:53:00
11:53 AM,64.0,33.1,31,30.32,10.0,NW,16.1,20.7,N/A,,Clear,320,2013-03-13 16:53:00
12:53 PM,64.0,34.0,33,30.29,10.0,Variable,6.9,18.4,N/A,,Clear,0,2013-03-13 17:53:00
1:53 PM,66.2,33.8,30,30.25,10.0,NW,12.7,19.6,N/A,,Clear,320,2013-03-13 18:53:00
2:53 PM,66.0,26.1,22,30.25,10.0,NNW,9.2,24.2,N/A,,Clear,340,2013-03-13 19:53:00
3:53 PM,66.0,18.0,16,30.24,10.0,NNW,16.1,26.5,N/A,,Clear,340,2013-03-13 20:53:00
4:53 PM,64.9,19.0,17,30.24,10.0,North,17.3,26.5,N/A,,Clear,350,2013-03-13 21:53:00
5:53 PM,64.0,21.9,20,30.24,10.0,NNW,11.5,-,N/A,,Clear,340,2013-03-13 22:53:00
6:53 PM,60.1,23.0,24,30.27,10.0,North,9.2,-,N/A,,Clear,360,2013-03-13 23:53:00
7:53 PM,57.0,23.0,27,30.29,10.0,North,8.1,-,N/A,,Clear,350,2013-03-14 00:53:00
8:53 PM,54.0,24.1,31,30.28,10.0,North,6.9,-,N/A,,Clear,350,2013-03-14 01:53:00
9:53 PM,52.0,24.1,34,30.31,10.0,NNW,5.8,-,N/A,,Clear,340,2013-03-14 02:53:00
10:53 PM,50.0,25.0,38,30.34,10.0,NNW,5.8,-,N/A,,Clear,340,2013-03-14 03:53:00
11:53 PM,48.9,26.1,41,30.35,10.0,NW,3.5,-,N/A,,Clear,310,2013-03-14 04:53:00